createdAt,value
2022-10-02T00:00:37.461Z,0.50
2022-10-02T00:01:37.485Z,0.30
2022-10-02T00:02:37.435Z,0.20
2022-10-02T00:03:37.444Z,0.50
2022-10-02T00:04:37.465Z,0.30
2022-10-02T00:05:37.418Z,0.30
2022-10-02T00:06:37.594Z,0.40
2022-10-02T00:07:37.385Z,0.70
2022-10-02T00:08:37.394Z,0.20
2022-10-02T00:09:37.363Z,0.40
2022-10-02T00:10:37.352Z,0.50
2022-10-02T00:11:37.333Z,0.30
2022-10-02T00:12:37.333Z,0.50
2022-10-02T00:13:37.316Z,0.40
2022-10-02T00:14:37.324Z,0.70
2022-10-02T00:15:37.293Z,0.40
2022-10-02T00:16:37.587Z,0.50
2022-10-02T00:17:37.265Z,0.50
2022-10-02T00:18:37.255Z,0.60
2022-10-02T00:19:37.266Z,0.70
2022-10-02T00:20:37.257Z,0.40
2022-10-02T00:21:37.227Z,0.60
2022-10-02T00:22:37.207Z,0.40
2022-10-02T00:23:37.196Z,0.40
2022-10-02T00:24:37.183Z,0.40
2022-10-02T00:25:37.204Z,0.30
2022-10-02T00:26:37.397Z,0.60
2022-10-02T00:27:37.171Z,0.60
2022-10-02T00:28:37.136Z,0.30
2022-10-02T00:29:37.126Z,0.50
2022-10-02T00:30:37.116Z,0.20
2022-10-02T00:31:37.158Z,0.30
2022-10-02T00:32:37.109Z,0.30
2022-10-02T00:33:37.109Z,0.30
2022-10-02T00:34:37.068Z,0.40
2022-10-02T00:35:37.057Z,0.40
2022-10-02T00:36:37.303Z,0.40
2022-10-02T00:37:37.069Z,0.40
2022-10-02T00:38:37.043Z,0.50
2022-10-02T00:39:37.016Z,0.20
2022-10-02T00:40:36.995Z,0.50
2022-10-02T00:41:36.993Z,0.60
2022-10-02T00:42:36.978Z,0.80
2022-10-02T00:43:36.998Z,0.50
2022-10-02T00:44:36.969Z,0.40
2022-10-02T00:45:37.066Z,0.40
2022-10-02T00:46:37.254Z,0.40
2022-10-02T00:47:36.927Z,0.40
2022-10-02T00:48:36.912Z,0.40
2022-10-02T00:49:36.922Z,0.60
2022-10-02T00:50:36.887Z,0.30
2022-10-02T00:51:36.898Z,0.30
2022-10-02T00:52:36.868Z,0.60
2022-10-02T00:53:36.879Z,0.50
2022-10-02T00:54:36.842Z,0.40
2022-10-02T00:55:36.837Z,0.40
2022-10-02T00:56:37.060Z,0.40
2022-10-02T00:57:36.807Z,0.30
2022-10-02T00:58:36.815Z,0.50
2022-10-02T00:59:36.788Z,0.50
2022-10-02T01:00:36.829Z,0.50
2022-10-02T01:01:36.767Z,0.30
2022-10-02T01:02:36.748Z,0.60
2022-10-02T01:03:36.770Z,0.30
2022-10-02T01:04:36.729Z,0.50
2022-10-02T01:05:36.720Z,1.10
2022-10-02T01:06:37.015Z,0.20
2022-10-02T01:07:36.701Z,0.50
2022-10-02T01:08:36.679Z,0.30
2022-10-02T01:09:36.701Z,0.70
2022-10-02T01:10:36.660Z,0.50
2022-10-02T01:11:36.649Z,0.40
2022-10-02T01:12:36.628Z,0.50
2022-10-02T01:13:36.622Z,0.50
2022-10-02T01:14:36.610Z,0.20
2022-10-02T01:15:36.621Z,0.50
2022-10-02T01:16:36.895Z,0.70
2022-10-02T01:17:36.579Z,0.30
2022-10-02T01:18:36.561Z,0.40
2022-10-02T01:19:36.581Z,0.90
2022-10-02T01:20:36.543Z,1.10
2022-10-02T01:21:36.551Z,0.50
2022-10-02T01:22:36.523Z,0.60
2022-10-02T01:23:36.512Z,0.30
2022-10-02T01:24:36.502Z,0.70
2022-10-02T01:25:36.492Z,0.30
2022-10-02T01:26:36.760Z,0.90
2022-10-02T01:27:39.137Z,0.50
2022-10-02T01:28:36.459Z,0.80
2022-10-02T01:29:36.442Z,0.80
2022-10-02T01:30:36.435Z,0.70
2022-10-02T01:31:36.505Z,0.40
2022-10-02T01:32:36.404Z,0.50
2022-10-02T01:33:36.393Z,0.40
2022-10-02T01:34:36.381Z,0.50
2022-10-02T01:35:36.373Z,0.30
2022-10-02T01:36:36.745Z,0.30
2022-10-02T01:37:36.353Z,0.70
2022-10-02T01:38:36.333Z,0.90
2022-10-02T01:39:36.363Z,0.90
2022-10-02T01:40:36.311Z,0.70
2022-10-02T01:41:36.304Z,0.70
2022-10-02T01:42:36.301Z,0.60
2022-10-02T01:43:36.283Z,0.50
2022-10-02T01:44:36.292Z,0.90
2022-10-02T01:45:36.397Z,0.50
2022-10-02T01:46:36.579Z,1.10
2022-10-02T01:47:36.234Z,0.90
2022-10-02T01:48:36.230Z,1.20
2022-10-02T01:49:36.234Z,1.10
2022-10-02T01:50:36.204Z,0.80
2022-10-02T01:51:36.186Z,0.80
2022-10-02T01:52:36.185Z,0.70
2022-10-02T01:53:36.175Z,0.60
2022-10-02T01:54:36.158Z,1.00
2022-10-02T01:55:36.163Z,0.80
2022-10-02T01:56:36.339Z,1.30
2022-10-02T01:57:36.127Z,0.90
2022-10-02T01:58:36.112Z,0.80
2022-10-02T01:59:36.116Z,0.90
2022-10-02T02:00:36.094Z,1.50
2022-10-02T02:01:36.078Z,0.90
2022-10-02T02:02:36.087Z,0.70
2022-10-02T02:03:36.054Z,0.60
2022-10-02T02:04:36.072Z,1.30
2022-10-02T02:05:36.034Z,1.10
2022-10-02T02:06:36.328Z,0.90
2022-10-02T02:07:36.006Z,1.30
2022-10-02T02:08:36.010Z,0.70
2022-10-02T02:09:35.986Z,0.70
2022-10-02T02:10:36.005Z,1.20
2022-10-02T02:11:35.966Z,1.10
2022-10-02T02:12:35.946Z,1.00
2022-10-02T02:13:35.936Z,0.80
2022-10-02T02:14:35.933Z,1.10
2022-10-02T02:15:35.938Z,1.00
2022-10-02T02:16:36.295Z,1.10
2022-10-02T02:17:35.897Z,1.00
2022-10-02T02:18:35.889Z,1.20
2022-10-02T02:19:35.867Z,1.00
2022-10-02T02:20:35.886Z,0.70
2022-10-02T02:21:35.858Z,0.80
2022-10-02T02:22:35.838Z,0.80
2022-10-02T02:23:35.828Z,0.90
2022-10-02T02:24:35.816Z,0.90
2022-10-02T02:25:35.828Z,1.00
2022-10-02T02:26:36.059Z,1.20
2022-10-02T02:27:35.806Z,1.20
2022-10-02T02:28:35.775Z,0.80
2022-10-02T02:29:35.759Z,1.20
2022-10-02T02:30:35.757Z,1.40
2022-10-02T02:31:35.770Z,1.30
2022-10-02T02:32:35.758Z,0.80
2022-10-02T02:33:35.718Z,1.00
2022-10-02T02:34:35.709Z,0.80
2022-10-02T02:35:35.722Z,1.40
2022-10-02T02:36:35.932Z,1.00
2022-10-02T02:37:35.679Z,1.20
2022-10-02T02:38:35.662Z,1.20
2022-10-02T02:39:35.658Z,0.90
2022-10-02T02:40:35.668Z,1.20
2022-10-02T02:41:35.629Z,0.80
2022-10-02T02:42:35.618Z,1.40
2022-10-02T02:43:35.598Z,1.30
2022-10-02T02:44:35.591Z,1.10
2022-10-02T02:45:35.652Z,1.20
2022-10-02T02:46:35.765Z,1.30
2022-10-02T02:47:35.559Z,1.50
2022-10-02T02:48:35.557Z,1.20
2022-10-02T02:49:35.548Z,0.90
2022-10-02T02:50:35.529Z,1.10
2022-10-02T02:51:35.573Z,1.10
2022-10-02T02:52:35.510Z,1.00
2022-10-02T02:53:35.491Z,1.10
2022-10-02T02:54:35.484Z,1.30
2022-10-02T02:55:35.471Z,1.30
2022-10-02T02:56:35.820Z,1.10
2022-10-02T02:57:35.474Z,1.10
2022-10-02T02:58:35.441Z,1.30
2022-10-02T02:59:35.430Z,1.20
2022-10-02T03:00:35.424Z,1.30
2022-10-02T03:01:35.468Z,1.50
2022-10-02T03:02:35.423Z,1.20
2022-10-02T03:03:35.411Z,1.70
2022-10-02T03:04:35.371Z,1.20
2022-10-02T03:05:35.362Z,1.50
2022-10-02T03:06:35.616Z,1.20
2022-10-02T03:07:35.344Z,1.20
2022-10-02T03:08:35.333Z,1.00
2022-10-02T03:09:35.343Z,1.40
2022-10-02T03:10:35.311Z,1.20
2022-10-02T03:11:35.304Z,1.10
2022-10-02T03:12:35.283Z,1.10
2022-10-02T03:13:35.305Z,1.20
2022-10-02T03:14:35.262Z,1.30
2022-10-02T03:15:35.273Z,1.10
2022-10-02T03:16:35.622Z,1.40
2022-10-02T03:17:35.238Z,1.00
2022-10-02T03:18:35.216Z,1.30
2022-10-02T03:19:35.214Z,1.20
2022-10-02T03:20:35.243Z,1.20
2022-10-02T03:21:35.186Z,1.10
2022-10-02T03:22:35.174Z,1.10
2022-10-02T03:23:35.163Z,1.30
2022-10-02T03:24:35.155Z,0.80
2022-10-02T03:25:35.143Z,1.20
2022-10-02T03:26:35.458Z,1.00
2022-10-02T03:27:35.412Z,1.20
2022-10-02T03:28:55.076Z,1.50
2022-10-02T03:29:36.104Z,0.90
2022-10-02T03:30:35.084Z,1.00
2022-10-02T03:31:35.112Z,0.90
2022-10-02T03:32:35.096Z,1.10
2022-10-02T03:33:35.064Z,1.10
2022-10-02T03:34:35.082Z,0.90
2022-10-02T03:35:35.037Z,1.30
2022-10-02T03:36:35.314Z,1.20
2022-10-02T03:37:35.015Z,1.10
2022-10-02T03:38:35.017Z,0.80
2022-10-02T03:39:34.987Z,0.90
2022-10-02T03:40:34.984Z,1.10
2022-10-02T03:41:34.967Z,1.20
2022-10-02T03:42:34.957Z,0.80
2022-10-02T03:43:34.969Z,1.00
2022-10-02T03:44:34.927Z,0.70
2022-10-02T03:45:51.862Z,1.10
2022-10-02T03:46:36.241Z,1.00
2022-10-02T03:47:34.898Z,0.90
2022-10-02T03:48:34.897Z,1.40
2022-10-02T03:49:34.899Z,1.20
2022-10-02T03:50:36.562Z,1.00
2022-10-02T03:51:34.858Z,1.50
2022-10-02T03:52:34.845Z,1.40
2022-10-02T03:53:34.858Z,1.50
2022-10-02T03:54:34.827Z,1.70
2022-10-02T03:55:34.816Z,1.80
2022-10-02T03:56:35.095Z,2.00
2022-10-02T03:57:34.797Z,1.90
2022-10-02T03:58:34.778Z,2.40
2022-10-02T03:59:34.797Z,2.10
2022-10-02T04:00:34.777Z,2.90
2022-10-02T04:01:34.801Z,2.70
2022-10-02T04:02:34.741Z,2.80
2022-10-02T04:03:34.751Z,2.80
2022-10-02T04:04:34.709Z,2.60
2022-10-02T04:05:34.732Z,3.00
2022-10-02T04:06:35.040Z,3.20
2022-10-02T04:07:34.678Z,3.50
2022-10-02T04:08:34.668Z,3.80
2022-10-02T04:09:34.658Z,3.80
2022-10-02T04:10:34.669Z,3.80
2022-10-02T04:11:34.669Z,3.70
2022-10-02T04:12:34.621Z,4.50
2022-10-02T04:13:34.611Z,3.70
2022-10-02T04:14:34.600Z,4.50
2022-10-02T04:15:34.591Z,4.00
2022-10-02T04:16:34.952Z,4.10
2022-10-02T04:17:34.571Z,3.90
2022-10-02T04:18:34.563Z,4.00
2022-10-02T04:19:34.552Z,3.40
2022-10-02T04:20:34.540Z,4.40
2022-10-02T04:21:34.552Z,4.10
2022-10-02T04:22:34.520Z,3.50
2022-10-02T04:23:34.510Z,2.90
2022-10-02T04:24:34.490Z,3.40
2022-10-02T04:25:34.482Z,3.00
2022-10-02T04:26:34.781Z,3.00
2022-10-02T04:27:34.470Z,3.10
2022-10-02T04:28:34.449Z,3.00
2022-10-02T04:29:34.439Z,3.20
2022-10-02T04:30:42.202Z,2.90
2022-10-02T04:31:34.468Z,3.00
2022-10-02T04:32:34.404Z,3.30
2022-10-02T04:33:38.347Z,3.00
2022-10-02T04:34:34.384Z,2.90
2022-10-02T04:35:34.374Z,3.00
2022-10-02T04:36:34.719Z,2.70
2022-10-02T04:37:34.354Z,3.00
2022-10-02T04:38:34.368Z,2.70
2022-10-02T04:39:34.326Z,3.10
2022-10-02T04:40:34.314Z,2.40
2022-10-02T04:41:34.326Z,2.60
2022-10-02T04:42:34.293Z,2.40
2022-10-02T04:43:34.325Z,2.30
2022-10-02T04:44:34.298Z,2.00
2022-10-02T04:45:34.288Z,2.40
2022-10-02T04:46:34.458Z,2.40
2022-10-02T04:47:34.264Z,2.20
2022-10-02T04:48:34.228Z,2.60
2022-10-02T04:49:34.214Z,3.10
2022-10-02T04:50:34.313Z,2.60
2022-10-02T04:51:34.194Z,2.30
2022-10-02T04:52:34.184Z,2.40
2022-10-02T04:53:34.174Z,2.50
2022-10-02T04:54:34.166Z,2.80
2022-10-02T04:55:34.174Z,3.00
2022-10-02T04:56:34.345Z,2.20
2022-10-02T04:57:34.126Z,2.30
2022-10-02T04:58:34.137Z,2.70
2022-10-02T04:59:34.104Z,2.80
2022-10-02T05:00:34.118Z,2.50
2022-10-02T05:01:34.088Z,2.40
2022-10-02T05:02:34.071Z,2.50
2022-10-02T05:03:34.085Z,2.30
2022-10-02T05:04:34.057Z,2.90
2022-10-02T05:05:34.066Z,2.80
2022-10-02T05:06:34.279Z,2.40
2022-10-02T05:07:34.017Z,2.20
2022-10-02T05:08:34.009Z,2.90
2022-10-02T05:09:33.998Z,2.60
2022-10-02T05:10:34.011Z,2.70
2022-10-02T05:11:33.977Z,2.70
2022-10-02T05:12:33.958Z,2.70
2022-10-02T05:13:33.955Z,2.30
2022-10-02T05:14:33.939Z,2.80
2022-10-02T05:15:33.955Z,2.60
2022-10-02T05:16:34.413Z,3.10
2022-10-02T05:17:33.909Z,2.80
2022-10-02T05:18:33.897Z,3.00
2022-10-02T05:19:33.888Z,2.90
2022-10-02T05:20:34.041Z,2.90
2022-10-02T05:21:33.868Z,2.70
2022-10-02T05:22:33.899Z,2.70
2022-10-02T05:23:33.928Z,2.50
2022-10-02T05:24:33.828Z,2.30
2022-10-02T05:25:33.821Z,2.90
2022-10-02T05:26:34.004Z,2.50
2022-10-02T05:27:33.820Z,2.90
2022-10-02T05:28:33.828Z,3.20
2022-10-02T05:29:33.780Z,3.30
2022-10-02T05:30:33.783Z,3.20
2022-10-02T05:31:33.891Z,3.00
2022-10-02T05:32:33.748Z,2.60
2022-10-02T05:33:33.737Z,3.20
2022-10-02T05:34:33.720Z,2.80
2022-10-02T05:35:33.739Z,2.90
2022-10-02T05:36:34.057Z,2.90
2022-10-02T05:37:33.689Z,3.50
2022-10-02T05:38:33.688Z,2.90
2022-10-02T05:39:33.672Z,3.30
2022-10-02T05:40:33.651Z,3.60
2022-10-02T05:41:33.661Z,2.90
2022-10-02T05:42:33.630Z,3.50
2022-10-02T05:43:33.623Z,3.20
2022-10-02T05:44:33.612Z,3.00
2022-10-02T05:45:33.603Z,2.80
2022-10-02T05:46:33.852Z,2.80
2022-10-02T05:47:33.580Z,3.40
2022-10-02T05:48:33.583Z,3.70
2022-10-02T05:49:33.571Z,3.50
2022-10-02T05:50:33.580Z,2.60
2022-10-02T05:51:33.580Z,3.20
2022-10-02T05:52:33.563Z,3.20
2022-10-02T05:53:33.512Z,2.80
2022-10-02T05:54:34.263Z,3.20
2022-10-02T05:55:33.491Z,3.30
2022-10-02T05:56:33.727Z,3.10
2022-10-02T05:57:33.473Z,3.00
2022-10-02T05:58:33.454Z,2.50
2022-10-02T05:59:33.444Z,3.30
2022-10-02T06:00:33.440Z,2.20
2022-10-02T06:01:33.560Z,2.90
2022-10-02T06:02:38.227Z,3.20
2022-10-02T06:03:34.394Z,2.60
2022-10-02T06:04:33.414Z,3.10
2022-10-02T06:05:33.372Z,3.80
2022-10-02T06:06:33.380Z,3.40
2022-10-02T06:07:33.353Z,3.00
2022-10-02T06:08:33.348Z,2.90
2022-10-02T06:09:33.333Z,3.00
2022-10-02T06:10:33.344Z,3.10
2022-10-02T06:11:33.332Z,3.00
2022-10-02T06:12:33.307Z,2.70
2022-10-02T06:13:33.288Z,2.90
2022-10-02T06:14:33.286Z,2.80
2022-10-02T06:15:33.305Z,3.10
2022-10-02T06:16:33.374Z,3.40
2022-10-02T06:17:33.245Z,2.90
2022-10-02T06:18:33.243Z,2.60
2022-10-02T06:19:33.218Z,3.60
2022-10-02T06:20:33.215Z,3.40
2022-10-02T06:21:33.204Z,3.00
2022-10-02T06:22:33.215Z,3.30
2022-10-02T06:23:33.178Z,3.10
2022-10-02T06:24:33.166Z,2.80
2022-10-02T06:25:33.156Z,3.50
2022-10-02T06:26:33.308Z,2.70
2022-10-02T06:27:33.156Z,2.90
2022-10-02T06:28:33.125Z,3.10
2022-10-02T06:29:33.107Z,2.80
2022-10-02T06:30:33.108Z,2.80
2022-10-02T06:31:33.130Z,2.80
2022-10-02T06:32:33.085Z,2.80
2022-10-02T06:33:33.087Z,3.60
2022-10-02T06:34:33.062Z,3.50
2022-10-02T06:35:33.046Z,3.20
2022-10-02T06:36:33.066Z,3.20
2022-10-02T06:37:33.019Z,3.00
2022-10-02T06:38:33.016Z,2.80
2022-10-02T06:39:32.998Z,3.50
2022-10-02T06:40:33.005Z,3.10
2022-10-02T06:41:32.977Z,2.90
2022-10-02T06:42:32.997Z,2.90
2022-10-02T06:43:32.958Z,3.20
2022-10-02T06:44:32.967Z,2.40
2022-10-02T06:45:32.973Z,3.20
2022-10-02T06:46:32.929Z,2.90
2022-10-02T06:47:32.931Z,3.60
2022-10-02T06:48:32.907Z,3.20
2022-10-02T06:49:32.887Z,2.90
2022-10-02T06:50:32.889Z,2.90
2022-10-02T06:51:32.872Z,3.30
2022-10-02T06:52:37.748Z,2.80
2022-10-02T06:53:33.849Z,2.60
2022-10-02T06:54:32.838Z,3.60
2022-10-02T06:55:32.819Z,3.00
2022-10-02T06:56:32.811Z,2.80
2022-10-02T06:57:32.799Z,2.80
2022-10-02T06:58:32.820Z,2.50
2022-10-02T06:59:32.778Z,3.10
2022-10-02T07:00:32.812Z,2.50
2022-10-02T07:01:32.757Z,3.20
2022-10-02T07:02:32.812Z,2.80
2022-10-02T07:03:32.732Z,2.70
2022-10-02T07:04:32.756Z,3.10
2022-10-02T07:05:32.712Z,2.80
2022-10-02T07:06:32.703Z,3.00
2022-10-02T07:07:32.691Z,2.80
2022-10-02T07:08:32.680Z,3.20
2022-10-02T07:09:32.693Z,2.70
2022-10-02T07:10:32.653Z,2.80
2022-10-02T07:11:32.643Z,3.00
2022-10-02T07:12:32.631Z,2.80
2022-10-02T07:13:32.622Z,2.30
2022-10-02T07:14:32.634Z,3.50
2022-10-02T07:15:32.601Z,2.30
2022-10-02T07:16:32.690Z,2.40
2022-10-02T07:17:32.574Z,3.00
2022-10-02T07:18:32.572Z,2.90
2022-10-02T07:19:32.573Z,2.50
2022-10-02T07:20:32.556Z,3.00
2022-10-02T07:21:32.554Z,2.50
2022-10-02T07:22:44.626Z,3.40
2022-10-02T07:23:33.505Z,2.50
2022-10-02T07:24:32.503Z,2.40
2022-10-02T07:25:32.489Z,2.40
2022-10-02T07:26:32.483Z,2.50
2022-10-02T07:27:32.484Z,2.60
2022-10-02T07:28:32.489Z,2.40
2022-10-02T07:29:32.444Z,3.10
2022-10-02T07:30:32.434Z,3.00
2022-10-02T07:31:32.486Z,2.40
2022-10-02T07:32:32.415Z,3.20
2022-10-02T07:33:32.394Z,2.20
2022-10-02T07:34:32.385Z,3.10
2022-10-02T07:35:32.397Z,2.60
2022-10-02T07:36:32.365Z,2.80
2022-10-02T07:37:32.390Z,2.70
2022-10-02T07:38:32.346Z,2.50
2022-10-02T07:39:32.337Z,2.80
2022-10-02T07:40:32.328Z,2.90
2022-10-02T07:41:32.317Z,2.50
2022-10-02T07:42:32.308Z,2.40
2022-10-02T07:43:32.306Z,2.70
2022-10-02T07:44:32.276Z,3.30
2022-10-02T07:45:32.304Z,2.70
2022-10-02T07:46:32.260Z,2.60
2022-10-02T07:47:32.268Z,2.30
2022-10-02T07:48:32.267Z,2.80
2022-10-02T07:49:32.218Z,2.70
2022-10-02T07:50:32.209Z,2.20
2022-10-02T07:51:32.197Z,3.10
2022-10-02T07:52:32.189Z,2.70
2022-10-02T07:53:32.178Z,2.60
2022-10-02T07:54:32.186Z,3.00
2022-10-02T07:55:32.161Z,2.40
2022-10-02T07:56:32.155Z,2.50
2022-10-02T07:57:32.129Z,2.30
2022-10-02T07:58:32.129Z,2.00
2022-10-02T07:59:32.137Z,2.20
2022-10-02T08:00:32.129Z,2.40
2022-10-02T08:01:32.089Z,1.80
2022-10-02T08:02:32.156Z,2.80
2022-10-02T08:03:32.182Z,2.80
2022-10-02T08:04:36.143Z,1.90
2022-10-02T08:05:32.070Z,2.50
2022-10-02T08:06:32.044Z,1.80
2022-10-02T08:07:32.029Z,2.70
2022-10-02T08:08:32.011Z,2.40
2022-10-02T08:09:31.997Z,2.70
2022-10-02T08:10:32.010Z,2.40
2022-10-02T08:11:31.971Z,2.10
2022-10-02T08:12:31.972Z,1.90
2022-10-02T08:13:31.950Z,1.80
2022-10-02T08:14:31.943Z,2.20
2022-10-02T08:15:31.954Z,2.20
2022-10-02T08:16:31.969Z,2.70
2022-10-02T08:17:31.915Z,2.60
2022-10-02T08:18:35.801Z,1.90
2022-10-02T08:19:31.882Z,2.30
2022-10-02T08:20:31.902Z,2.40
2022-10-02T08:21:31.862Z,2.80
2022-10-02T08:22:31.882Z,2.10
2022-10-02T08:23:31.842Z,2.40
2022-10-02T08:24:31.833Z,2.20
2022-10-02T08:25:31.845Z,1.90
2022-10-02T08:26:35.310Z,2.40
2022-10-02T08:27:31.794Z,2.70
2022-10-02T08:28:31.862Z,1.80
2022-10-02T08:29:31.775Z,2.20
2022-10-02T08:30:31.787Z,2.60
2022-10-02T08:31:31.793Z,2.10
2022-10-02T08:32:34.768Z,2.10
2022-10-02T08:33:31.729Z,1.80
2022-10-02T08:34:31.736Z,1.40
2022-10-02T08:35:31.727Z,2.20
2022-10-02T08:36:31.694Z,1.90
2022-10-02T08:37:31.684Z,2.30
2022-10-02T08:38:31.676Z,2.10
2022-10-02T08:39:31.665Z,2.00
2022-10-02T08:40:31.683Z,2.30
2022-10-02T08:41:31.658Z,2.00
2022-10-02T08:42:31.627Z,2.10
2022-10-02T08:43:31.616Z,2.00
2022-10-02T08:44:35.965Z,2.00
2022-10-02T08:45:31.660Z,2.20
2022-10-02T08:46:31.596Z,1.90
2022-10-02T08:47:31.595Z,2.00
2022-10-02T08:48:31.580Z,2.10
2022-10-02T08:49:31.547Z,1.70
2022-10-02T08:50:31.546Z,1.60
2022-10-02T08:51:31.549Z,1.40
2022-10-02T08:52:31.518Z,1.90
2022-10-02T08:53:31.509Z,2.20
2022-10-02T08:54:31.497Z,1.50
2022-10-02T08:55:31.488Z,2.00
2022-10-02T08:56:31.478Z,2.30
2022-10-02T08:57:31.483Z,1.90
2022-10-02T08:58:31.450Z,1.80
2022-10-02T08:59:31.438Z,2.10
2022-10-02T09:00:31.460Z,1.80
2022-10-02T09:01:31.413Z,1.70
2022-10-02T09:02:31.433Z,1.50
2022-10-02T09:03:31.410Z,1.30
2022-10-02T09:04:31.390Z,1.60
2022-10-02T09:05:31.370Z,1.70
2022-10-02T09:06:31.364Z,1.10
2022-10-02T09:07:31.350Z,1.50
2022-10-02T09:08:31.360Z,1.60
2022-10-02T09:09:31.347Z,1.90
2022-10-02T09:10:31.312Z,1.60
2022-10-02T09:11:31.301Z,1.40
2022-10-02T09:12:31.294Z,1.60
2022-10-02T09:13:31.301Z,1.70
2022-10-02T09:14:31.278Z,1.20
2022-10-02T09:15:31.331Z,1.20
2022-10-02T09:16:31.332Z,1.80
2022-10-02T09:17:31.248Z,1.80
2022-10-02T09:18:31.252Z,1.60
2022-10-02T09:19:31.212Z,1.90
2022-10-02T09:20:31.205Z,2.00
2022-10-02T09:21:31.194Z,1.60
2022-10-02T09:22:31.185Z,1.50
2022-10-02T09:23:31.165Z,1.80
2022-10-02T09:24:31.184Z,1.30
2022-10-02T09:25:31.146Z,1.50
2022-10-02T09:26:31.185Z,1.40
2022-10-02T09:27:31.197Z,1.50
2022-10-02T09:28:31.229Z,1.20
2022-10-02T09:29:31.124Z,1.50
2022-10-02T09:30:31.095Z,1.30
2022-10-02T09:31:31.179Z,1.00
2022-10-02T09:32:31.108Z,1.30
2022-10-02T09:33:31.075Z,1.50
2022-10-02T09:34:31.059Z,1.70
2022-10-02T09:35:31.116Z,1.20
2022-10-02T09:36:31.087Z,1.40
2022-10-02T09:37:31.105Z,1.30
2022-10-02T09:38:32.780Z,1.50
2022-10-02T09:39:30.991Z,1.20
2022-10-02T09:40:30.987Z,1.20
2022-10-02T09:41:30.967Z,1.50
2022-10-02T09:42:30.957Z,1.20
2022-10-02T09:43:30.970Z,1.30
2022-10-02T09:44:30.937Z,1.30
2022-10-02T09:45:31.004Z,1.20
2022-10-02T09:46:30.987Z,0.90
2022-10-02T09:47:30.900Z,1.40
2022-10-02T09:48:30.897Z,1.10
2022-10-02T09:49:30.900Z,1.50
2022-10-02T09:50:30.869Z,1.10
2022-10-02T09:51:30.859Z,1.20
2022-10-02T09:52:30.849Z,1.50
2022-10-02T09:53:30.830Z,0.90
2022-10-02T09:54:30.849Z,0.80
2022-10-02T09:55:30.812Z,1.00
2022-10-02T09:56:30.800Z,1.30
2022-10-02T09:57:30.789Z,0.90
2022-10-02T09:58:30.781Z,0.80
2022-10-02T09:59:31.528Z,0.70
2022-10-02T10:00:30.763Z,1.20
2022-10-02T10:01:30.890Z,0.90
2022-10-02T10:02:30.803Z,1.10
2022-10-02T10:03:30.722Z,0.80
2022-10-02T10:04:47.841Z,1.10
2022-10-02T10:05:31.723Z,0.90
2022-10-02T10:06:30.691Z,1.20
2022-10-02T10:07:30.674Z,1.10
2022-10-02T10:08:30.674Z,1.50
2022-10-02T10:09:30.654Z,1.20
2022-10-02T10:10:30.741Z,1.20
2022-10-02T10:11:30.643Z,1.20
2022-10-02T10:12:30.623Z,1.30
2022-10-02T10:13:30.614Z,1.60
2022-10-02T10:14:30.604Z,1.50
2022-10-02T10:15:30.613Z,1.30
2022-10-02T10:16:30.623Z,1.00
2022-10-02T10:17:30.575Z,1.60
2022-10-02T10:18:30.554Z,1.20
2022-10-02T10:19:30.547Z,1.20
2022-10-02T10:20:30.554Z,1.40
2022-10-02T10:21:30.545Z,1.30
2022-10-02T10:22:30.506Z,1.50
2022-10-02T10:23:30.506Z,1.70
2022-10-02T10:24:30.487Z,1.40
2022-10-02T10:25:30.505Z,1.00
2022-10-02T10:26:30.475Z,0.90
2022-10-02T10:27:30.553Z,1.60
2022-10-02T10:28:30.465Z,1.30
2022-10-02T10:29:30.438Z,1.60
2022-10-02T10:30:30.430Z,1.20
2022-10-02T10:31:37.752Z,1.00
2022-10-02T10:32:30.395Z,1.10
2022-10-02T10:33:30.395Z,1.20
2022-10-02T10:34:30.375Z,0.80
2022-10-02T10:35:30.367Z,1.50
2022-10-02T10:36:30.385Z,1.00
2022-10-02T10:37:30.348Z,1.30
2022-10-02T10:38:30.336Z,0.80
2022-10-02T10:39:30.325Z,1.10
2022-10-02T10:40:30.308Z,1.00
2022-10-02T10:41:30.306Z,1.30
2022-10-02T10:42:37.709Z,1.50
2022-10-02T10:43:31.387Z,1.00
2022-10-02T10:44:30.496Z,0.70
2022-10-02T10:45:30.580Z,0.90
2022-10-02T10:46:30.870Z,1.10
2022-10-02T10:47:30.339Z,1.30
2022-10-02T10:48:30.779Z,0.90
2022-10-02T10:49:30.558Z,0.80
2022-10-02T10:50:30.404Z,1.10
2022-10-02T10:51:30.289Z,1.40
2022-10-02T10:52:30.201Z,0.80
2022-10-02T10:53:30.212Z,0.90
2022-10-02T10:54:30.159Z,0.90
2022-10-02T10:55:30.274Z,0.70
2022-10-02T10:56:30.139Z,0.80
2022-10-02T10:57:30.130Z,1.00
2022-10-02T10:58:30.118Z,0.80
2022-10-02T10:59:30.102Z,1.20
2022-10-02T11:00:30.089Z,0.70
2022-10-02T11:01:30.144Z,1.30
2022-10-02T11:02:30.160Z,1.10
2022-10-02T11:03:30.080Z,0.90
2022-10-02T11:04:30.052Z,0.80
2022-10-02T11:05:30.044Z,1.30
2022-10-02T11:06:30.048Z,0.50
2022-10-02T11:07:30.045Z,0.90
2022-10-02T11:08:30.024Z,0.70
2022-10-02T11:09:29.996Z,0.90
2022-10-02T11:10:29.976Z,0.80
2022-10-02T11:11:29.974Z,0.60
2022-10-02T11:12:29.984Z,0.90
2022-10-02T11:13:29.944Z,0.70
2022-10-02T11:14:29.936Z,0.80
2022-10-02T11:15:29.926Z,1.10
2022-10-02T11:16:29.960Z,0.50
2022-10-02T11:17:29.905Z,0.80
2022-10-02T11:18:29.915Z,0.80
2022-10-02T11:19:29.883Z,0.60
2022-10-02T11:20:29.875Z,1.10
2022-10-02T11:21:29.858Z,0.60
2022-10-02T11:22:29.846Z,0.80
2022-10-02T11:23:29.866Z,0.80
2022-10-02T11:24:29.827Z,0.90
2022-10-02T11:25:29.815Z,1.00
2022-10-02T11:26:29.807Z,0.70
2022-10-02T11:27:29.788Z,0.60
2022-10-02T11:28:29.845Z,0.90
2022-10-02T11:29:29.799Z,1.10
2022-10-02T11:30:29.757Z,0.70
2022-10-02T11:31:29.828Z,1.00
2022-10-02T11:32:29.732Z,1.20
2022-10-02T11:33:29.729Z,0.90
2022-10-02T11:34:29.737Z,0.70
2022-10-02T11:35:29.706Z,1.00
2022-10-02T11:36:29.711Z,0.80
2022-10-02T11:37:29.681Z,0.60
2022-10-02T11:38:29.670Z,0.60
2022-10-02T11:39:29.660Z,0.80
2022-10-02T11:40:29.672Z,1.00
2022-10-02T11:41:29.642Z,0.80
2022-10-02T11:42:29.625Z,1.00
2022-10-02T11:43:29.612Z,0.70
2022-10-02T11:44:29.603Z,0.70
2022-10-02T11:45:29.633Z,1.00
2022-10-02T11:46:29.608Z,1.10
2022-10-02T11:47:29.571Z,1.10
2022-10-02T11:48:29.573Z,0.60
2022-10-02T11:49:29.552Z,0.80
2022-10-02T11:50:29.532Z,0.70
2022-10-02T11:51:29.524Z,0.90
2022-10-02T11:52:29.513Z,0.90
2022-10-02T11:53:29.524Z,0.90
2022-10-02T11:54:29.494Z,0.70
2022-10-02T11:55:29.481Z,0.70
2022-10-02T11:56:29.466Z,0.70
2022-10-02T11:57:29.466Z,0.50
2022-10-02T11:58:29.444Z,0.60
2022-10-02T11:59:29.464Z,0.80
2022-10-02T12:00:29.426Z,0.60
2022-10-02T12:01:29.425Z,0.90
2022-10-02T12:02:29.463Z,0.50
2022-10-02T12:03:29.458Z,0.90
2022-10-02T12:04:29.406Z,0.70
2022-10-02T12:05:29.375Z,0.80
2022-10-02T12:06:29.357Z,0.70
2022-10-02T12:07:29.354Z,0.60
2022-10-02T12:08:29.339Z,0.80
2022-10-02T12:09:29.352Z,0.80
2022-10-02T12:10:29.316Z,0.60
2022-10-02T12:11:29.308Z,0.80
2022-10-02T12:12:29.290Z,0.60
2022-10-02T12:13:29.278Z,0.70
2022-10-02T12:14:29.292Z,1.00
2022-10-02T12:15:29.258Z,0.80
2022-10-02T12:16:29.300Z,0.70
2022-10-02T12:17:29.240Z,0.70
2022-10-02T12:18:29.222Z,0.90
2022-10-02T12:19:29.242Z,0.90
2022-10-02T12:20:29.201Z,0.70
2022-10-02T12:21:29.192Z,0.60
2022-10-02T12:22:29.182Z,0.60
2022-10-02T12:23:29.170Z,0.60
2022-10-02T12:24:29.160Z,0.50
2022-10-02T12:25:29.173Z,0.60
2022-10-02T12:26:29.139Z,0.70
2022-10-02T12:27:29.134Z,1.20
2022-10-02T12:28:29.132Z,0.50
2022-10-02T12:29:29.104Z,0.60
2022-10-02T12:30:29.122Z,0.70
2022-10-02T12:31:29.125Z,0.70
2022-10-02T12:32:29.073Z,0.90
2022-10-02T12:33:29.067Z,0.80
2022-10-02T12:34:29.045Z,0.60
2022-10-02T12:35:29.055Z,0.80
2022-10-02T12:36:29.024Z,1.00
2022-10-02T12:37:29.025Z,0.70
2022-10-02T12:38:28.998Z,0.90
2022-10-02T12:39:29.036Z,0.70
2022-10-02T12:40:29.003Z,0.60
2022-10-02T12:41:28.967Z,0.80
2022-10-02T12:42:28.957Z,0.70
2022-10-02T12:43:28.958Z,0.90
2022-10-02T12:44:28.939Z,0.80
2022-10-02T12:45:28.984Z,0.70
2022-10-02T12:46:28.938Z,0.70
2022-10-02T12:47:28.905Z,1.10
2022-10-02T12:48:28.889Z,1.00
2022-10-02T12:49:28.878Z,0.70
2022-10-02T12:50:28.869Z,0.60
2022-10-02T12:51:28.859Z,0.50
2022-10-02T12:52:28.869Z,0.80
2022-10-02T12:53:28.839Z,0.60
2022-10-02T12:54:28.820Z,0.50
2022-10-02T12:55:28.819Z,0.50
2022-10-02T12:56:28.819Z,1.10
2022-10-02T12:57:28.791Z,1.00
2022-10-02T12:58:28.781Z,0.90
2022-10-02T12:59:28.771Z,0.80
2022-10-02T13:00:28.760Z,0.70
2022-10-02T13:01:28.818Z,0.90
2022-10-02T13:02:43.162Z,0.70
2022-10-02T13:03:29.728Z,0.90
2022-10-02T13:04:28.714Z,0.70
2022-10-02T13:05:28.710Z,0.70
2022-10-02T13:06:28.687Z,0.70
2022-10-02T13:07:28.717Z,0.80
2022-10-02T13:08:28.671Z,1.10
2022-10-02T13:09:30.119Z,0.50
2022-10-02T13:10:28.676Z,0.60
2022-10-02T13:11:28.644Z,0.80
2022-10-02T13:12:28.624Z,0.60
2022-10-02T13:13:28.624Z,0.90
2022-10-02T13:14:28.607Z,0.70
2022-10-02T13:15:28.635Z,0.70
2022-10-02T13:16:28.624Z,0.50
2022-10-02T13:17:28.595Z,0.70
2022-10-02T13:18:28.563Z,0.70